VOS Partner — PDBU — position and weather

sailwx.info

Track history (hours):
 
Tides and Currents Weather Stations Pressure Air Temp Water Temp Dewpoint Dewpoint Depression Visibility Wind Speed Wind Dir Waves Ship Positions

VOS Partner

Last reported at 2018-Jan-18 11:09 UTC. Time now 2018-Jan-23 08:22 UTC.
Position N 35°53' E 014°30'.

Length 83 m; draft 4.7 m.

Type: Ship. MMSI: 244860549.

Date/timePositionNaut miles runAvg speedWind from/ knotsBaromVisibWave heightAir tempDewpointWater temp
2018-Jan-18 11:09N 35°53' E 014°30'1 6.5
2018-Jan-18 10:56N 35°54' E 014°31'511.2
2018-Jan-18 10:28N 35°55' E 014°38'  
2018-Jan-10 20:17N 35°27' E 014°20'510.6
2018-Jan-10 19:50N 35°30' E 014°24'410.4
2018-Jan-10 19:30N 35°32' E 014°28'1010.5
2018-Jan-10 18:30N 35°39' E 014°37'711.4
2018-Jan-10 17:53N 35°45' E 014°42'511.9
2018-Jan-10 17:29N 35°49' E 014°46'4 9.0
2018-Jan-10 17:00N 35°53' E 014°44'611.7
2018-Jan-10 16:30N 35°55' E 014°37'  
Track history (hours):
 
Tides and Currents Weather Stations Pressure Air Temp Water Temp Dewpoint Dewpoint Depression Visibility Wind Speed Wind Dir Waves Ship Positions

VOS Partner

Last reported at 2018-Jan-18 11:09 UTC. Time now 2018-Jan-23 08:22 UTC.
Position N 35°53' E 014°30'.

Length 83 m; draft 4.7 m.

Type: Ship. MMSI: 244860549.

Date/timePositionNaut miles runAvg speedWind from/ knotsBaromVisibWave heightAir tempDewpointWater temp
2018-Jan-18 11:09N 35°53' E 014°30'1 6.5
2018-Jan-18 10:56N 35°54' E 014°31'511.2
2018-Jan-18 10:28N 35°55' E 014°38'  
2018-Jan-10 20:17N 35°27' E 014°20'510.6
2018-Jan-10 19:50N 35°30' E 014°24'410.4
2018-Jan-10 19:30N 35°32' E 014°28'1010.5
2018-Jan-10 18:30N 35°39' E 014°37'711.4
2018-Jan-10 17:53N 35°45' E 014°42'511.9
2018-Jan-10 17:29N 35°49' E 014°46'4 9.0
2018-Jan-10 17:00N 35°53' E 014°44'611.7
2018-Jan-10 16:30N 35°55' E 014°37'  

Dump ship's entire track history